sensor_id;sensor_type;location;lat;lon;timestamp;pressure;altitude;pressure_sealevel;temperature;humidity
61528;BME280;47395;42.032;-8.634;2023-04-24T00:00:29;101230.19;;;16.51;100.00
61528;BME280;47395;42.032;-8.634;2023-04-24T00:02:32;101235.97;;;16.58;100.00
61528;BME280;47395;42.032;-8.634;2023-04-24T00:04:34;101227.72;;;16.48;100.00
61528;BME280;47395;42.032;-8.634;2023-04-24T00:06:39;101238.16;;;16.51;100.00
61528;BME280;47395;42.032;-8.634;2023-04-24T00:08:43;101236.16;;;16.55;100.00
61528;BME280;47395;42.032;-8.634;2023-04-24T00:10:44;101228.69;;;16.47;100.00
61528;BME280;47395;42.032;-8.634;2023-04-24T00:12:45;101227.81;;;16.47;100.00
61528;BME280;47395;42.032;-8.634;2023-04-24T00:14:46;101233.78;;;16.50;100.00
61528;BME280;47395;42.032;-8.634;2023-04-24T00:16:49;101239.00;;;16.52;100.00
61528;BME280;47395;42.032;-8.634;2023-04-24T00:18:50;101243.50;;;16.51;100.00
61528;BME280;47395;42.032;-8.634;2023-04-24T00:20:53;101237.31;;;16.51;100.00
61528;BME280;47395;42.032;-8.634;2023-04-24T00:22:55;101241.66;;;16.52;100.00
61528;BME280;47395;42.032;-8.634;2023-04-24T00:24:56;101243.28;;;16.54;100.00
61528;BME280;47395;42.032;-8.634;2023-04-24T00:26:57;101244.22;;;16.53;100.00
61528;BME280;47395;42.032;-8.634;2023-04-24T00:28:58;101233.59;;;16.53;100.00
61528;BME280;47395;42.032;-8.634;2023-04-24T00:31:01;101237.75;;;16.57;100.00
61528;BME280;47395;42.032;-8.634;2023-04-24T00:33:02;101234.22;;;16.57;100.00
61528;BME280;47395;42.032;-8.634;2023-04-24T00:35:04;101234.22;;;16.57;100.00
61528;BME280;47395;42.032;-8.634;2023-04-24T00:37:06;101232.34;;;16.59;100.00
61528;BME280;47395;42.032;-8.634;2023-04-24T00:39:07;101233.84;;;16.63;100.00
61528;BME280;47395;42.032;-8.634;2023-04-24T00:41:11;101232.69;;;16.67;100.00
61528;BME280;47395;42.032;-8.634;2023-04-24T00:43:12;101228.97;;;16.70;100.00
61528;BME280;47395;42.032;-8.634;2023-04-24T00:45:13;101229.69;;;16.72;100.00
61528;BME280;47395;42.032;-8.634;2023-04-24T00:47:14;101228.09;;;16.69;100.00
61528;BME280;47395;42.032;-8.634;2023-04-24T00:49:15;101231.63;;;16.70;100.00
61528;BME280;47395;42.032;-8.634;2023-04-24T00:51:16;101221.72;;;16.72;100.00
61528;BME280;47395;42.032;-8.634;2023-04-24T00:53:17;101216.28;;;16.74;100.00
61528;BME280;47395;42.032;-8.634;2023-04-24T00:55:18;101208.97;;;16.77;100.00
61528;BME280;47395;42.032;-8.634;2023-04-24T00:57:19;101215.91;;;16.80;100.00
61528;BME280;47395;42.032;-8.634;2023-04-24T00:59:20;101203.53;;;16.79;100.00
61528;BME280;47395;42.032;-8.634;2023-04-24T01:01:21;101192.06;;;16.78;100.00
61528;BME280;47395;42.032;-8.634;2023-04-24T01:03:25;101187.47;;;16.80;100.00
61528;BME280;47395;42.032;-8.634;2023-04-24T01:05:27;101183.22;;;16.78;100.00
61528;BME280;47395;42.032;-8.634;2023-04-24T01:07:28;101186.72;;;16.78;100.00
61528;BME280;47395;42.032;-8.634;2023-04-24T01:09:29;101183.53;;;16.73;100.00
61528;BME280;47395;42.032;-8.634;2023-04-24T01:11:32;101191.63;;;16.72;100.00
61528;BME280;47395;42.032;-8.634;2023-04-24T01:13:33;101180.22;;;16.69;100.00
61528;BME280;47395;42.032;-8.634;2023-04-24T01:15:35;101191.63;;;16.72;100.00
61528;BME280;47395;42.032;-8.634;2023-04-24T01:17:35;101189.06;;;16.70;100.00
61528;BME280;47395;42.032;-8.634;2023-04-24T01:19:38;101179.38;;;16.69;100.00
61528;BME280;47395;42.032;-8.634;2023-04-24T01:21:39;101167.88;;;16.68;100.00
61528;BME280;47395;42.032;-8.634;2023-04-24T01:23:40;101164.91;;;16.73;100.00
61528;BME280;47395;42.032;-8.634;2023-04-24T01:25:41;101148.09;;;16.73;99.68
61528;BME280;47395;42.032;-8.634;2023-04-24T01:27:42;101148.09;;;16.73;99.65
61528;BME280;47395;42.032;-8.634;2023-04-24T01:29:43;101153.41;;;16.73;99.38
61528;BME280;47395;42.032;-8.634;2023-04-24T01:31:44;101156.94;;;16.73;99.43
61528;BME280;47395;42.032;-8.634;2023-04-24T01:33:47;101166.06;;;16.69;98.98
61528;BME280;47395;42.032;-8.634;2023-04-24T01:35:49;101159.03;;;16.68;99.16
61528;BME280;47395;42.032;-8.634;2023-04-24T01:37:50;101164.47;;;16.66;98.73
61528;BME280;47395;42.032;-8.634;2023-04-24T01:39:50;101162.66;;;16.67;98.48
61528;BME280;47395;42.032;-8.634;2023-04-24T01:41:52;101175.56;;;16.73;98.28
61528;BME280;47395;42.032;-8.634;2023-04-24T01:43:54;101168.50;;;16.72;98.17
61528;BME280;47395;42.032;-8.634;2023-04-24T01:45:55;101174.25;;;16.79;98.04
61528;BME280;47395;42.032;-8.634;2023-04-24T01:47:56;101181.81;;;16.72;98.29
61528;BME280;47395;42.032;-8.634;2023-04-24T01:49:58;101188.31;;;16.81;97.94
61528;BME280;47395;42.032;-8.634;2023-04-24T01:51:59;101196.22;;;16.82;97.92
61528;BME280;47395;42.032;-8.634;2023-04-24T01:54:00;101196.22;;;16.82;97.70
61528;BME280;47395;42.032;-8.634;2023-04-24T01:56:01;101203.97;;;16.86;97.61
61528;BME280;47395;42.032;-8.634;2023-04-24T01:58:03;101214.75;;;16.84;98.13
61528;BME280;47395;42.032;-8.634;2023-04-24T02:00:05;101204.94;;;16.84;98.14
61528;BME280;47395;42.032;-8.634;2023-04-24T02:02:16;101208.13;;;16.90;97.92
61528;BME280;47395;42.032;-8.634;2023-04-24T02:04:17;101194.09;;;16.88;97.75
61528;BME280;47395;42.032;-8.634;2023-04-24T02:06:18;101199.19;;;16.91;97.65
61528;BME280;47395;42.032;-8.634;2023-04-24T02:08:19;101187.59;;;16.92;97.53
61528;BME280;47395;42.032;-8.634;2023-04-24T02:10:20;101189.50;;;16.90;97.77
61528;BME280;47395;42.032;-8.634;2023-04-24T02:12:21;101186.84;;;16.90;97.69
61528;BME280;47395;42.032;-8.634;2023-04-24T02:14:21;101189.28;;;16.93;97.53
61528;BME280;47395;42.032;-8.634;2023-04-24T02:16:22;101187.25;;;16.83;98.61
61528;BME280;47395;42.032;-8.634;2023-04-24T02:18:24;101187.47;;;16.80;98.72
61528;BME280;47395;42.032;-8.634;2023-04-24T02:20:25;101191.00;;;16.81;98.71
61528;BME280;47395;42.032;-8.634;2023-04-24T02:22:27;101188.31;;;16.81;98.79
61528;BME280;47395;42.032;-8.634;2023-04-24T02:24:28;101188.44;;;16.79;99.16
61528;BME280;47395;42.032;-8.634;2023-04-24T02:26:29;101187.69;;;16.77;99.14
61528;BME280;47395;42.032;-8.634;2023-04-24T02:28:32;101179.03;;;16.74;99.12
61528;BME280;47395;42.032;-8.634;2023-04-24T02:30:33;101168.31;;;16.75;99.14
61528;BME280;47395;42.032;-8.634;2023-04-24T02:32:34;101179.03;;;16.74;99.45
61528;BME280;47395;42.032;-8.634;2023-04-24T02:34:35;101173.09;;;16.70;99.32
61528;BME280;47395;42.032;-8.634;2023-04-24T02:36:36;101179.28;;;16.70;99.30
61528;BME280;47395;42.032;-8.634;2023-04-24T02:38:36;101183.28;;;16.63;99.35
61528;BME280;47395;42.032;-8.634;2023-04-24T02:40:39;101181.69;;;16.61;99.94
61528;BME280;47395;42.032;-8.634;2023-04-24T02:42:40;101184.66;;;16.56;100.00
61528;BME280;47395;42.032;-8.634;2023-04-24T02:44:41;101190.63;;;16.60;100.00
61528;BME280;47395;42.032;-8.634;2023-04-24T02:46:43;101176.78;;;16.54;100.00
61528;BME280;47395;42.032;-8.634;2023-04-24T02:48:43;101181.00;;;16.44;100.00
61528;BME280;47395;42.032;-8.634;2023-04-24T02:50:45;101185.28;;;16.47;100.00
61528;BME280;47395;42.032;-8.634;2023-04-24T02:52:46;101181.44;;;16.51;100.00
61528;BME280;47395;42.032;-8.634;2023-04-24T02:54:46;101187.84;;;16.48;100.00
61528;BME280;47395;42.032;-8.634;2023-04-24T02:56:47;101178.69;;;16.52;100.00
61528;BME280;47395;42.032;-8.634;2023-04-24T02:58:48;101184.75;;;16.54;100.00
61528;BME280;47395;42.032;-8.634;2023-04-24T03:00:53;101189.88;;;16.57;100.00
61528;BME280;47395;42.032;-8.634;2023-04-24T03:02:54;101203.50;;;16.53;100.00
61528;BME280;47395;42.032;-8.634;2023-04-24T03:04:55;101198.47;;;16.48;100.00
61528;BME280;47395;42.032;-8.634;2023-04-24T03:06:57;101201.03;;;16.50;100.00
61528;BME280;47395;42.032;-8.634;2023-04-24T03:08:59;101188.25;;;16.42;100.00
61528;BME280;47395;42.032;-8.634;2023-04-24T03:11:00;101199.00;;;16.40;100.00
61528;BME280;47395;42.032;-8.634;2023-04-24T03:13:01;101194.22;;;16.46;100.00
61528;BME280;47395;42.032;-8.634;2023-04-24T03:15:02;101192.06;;;16.38;100.00
61528;BME280;47395;42.032;-8.634;2023-04-24T03:17:03;101184.94;;;16.38;100.00
61528;BME280;47395;42.032;-8.634;2023-04-24T03:19:05;101187.28;;;16.43;100.00
61528;BME280;47395;42.032;-8.634;2023-04-24T03:21:09;101180.06;;;16.45;100.00
61528;BME280;47395;42.032;-8.634;2023-04-24T03:23:10;101171.00;;;16.48;100.00
61528;BME280;47395;42.032;-8.634;2023-04-24T03:25:12;101172.75;;;16.49;100.00
61528;BME280;47395;42.032;-8.634;2023-04-24T03:27:13;101176.13;;;16.38;100.00
61528;BME280;47395;42.032;-8.634;2023-04-24T03:29:30;101183.41;;;16.34;100.00
61528;BME280;47395;42.032;-8.634;2023-04-24T03:31:31;101178.09;;;16.34;100.00
61528;BME280;47395;42.032;-8.634;2023-04-24T03:33:32;101181.19;;;16.28;100.00
61528;BME280;47395;42.032;-8.634;2023-04-24T03:35:35;101178.81;;;16.23;100.00
61528;BME280;47395;42.032;-8.634;2023-04-24T03:37:40;101186.50;;;16.28;100.00
61528;BME280;47395;42.032;-8.634;2023-04-24T03:40:04;101193.31;;;16.32;100.00
61528;BME280;47395;42.032;-8.634;2023-04-24T03:42:08;101183.75;;;16.29;100.00
61528;BME280;47395;42.032;-8.634;2023-04-24T03:44:20;101187.03;;;16.33;100.00
61528;BME280;47395;42.032;-8.634;2023-04-24T03:46:21;101179.69;;;16.24;100.00
61528;BME280;47395;42.032;-8.634;2023-04-24T03:48:28;101181.81;;;16.31;100.00
61528;BME280;47395;42.032;-8.634;2023-04-24T03:50:29;101189.78;;;16.31;100.00
61528;BME280;47395;42.032;-8.634;2023-04-24T03:52:30;101188.63;;;16.23;100.00
61528;BME280;47395;42.032;-8.634;2023-04-24T03:54:31;101185.41;;;16.17;100.00
61528;BME280;47395;42.032;-8.634;2023-04-24T03:56:33;101182.84;;;16.16;100.00
61528;BME280;47395;42.032;-8.634;2023-04-24T03:58:36;101188.44;;;16.11;100.00
61528;BME280;47395;42.032;-8.634;2023-04-24T04:00:37;101178.78;;;16.10;100.00
61528;BME280;47395;42.032;-8.634;2023-04-24T04:05:13;101179.38;;;16.01;100.00
61528;BME280;47395;42.032;-8.634;2023-04-24T04:07:15;101172.38;;;16.00;100.00
61528;BME280;47395;42.032;-8.634;2023-04-24T04:09:17;101175.47;;;16.07;100.00
61528;BME280;47395;42.032;-8.634;2023-04-24T04:11:18;101182.50;;;16.08;100.00
61528;BME280;47395;42.032;-8.634;2023-04-24T04:13:19;101180.88;;;16.05;100.00
61528;BME280;47395;42.032;-8.634;2023-04-24T04:15:20;101187.34;;;16.01;100.00
61528;BME280;47395;42.032;-8.634;2023-04-24T04:17:23;101190.56;;;16.06;100.00
61528;BME280;47395;42.032;-8.634;2023-04-24T04:19:25;101190.47;;;16.08;100.00
61528;BME280;47395;42.032;-8.634;2023-04-24T04:21:26;101192.56;;;16.02;100.00
61528;BME280;47395;42.032;-8.634;2023-04-24T04:23:35;101188.84;;;16.05;100.00
61528;BME280;47395;42.032;-8.634;2023-04-24T04:25:45;101198.94;;;16.00;100.00
61528;BME280;47395;42.032;-8.634;2023-04-24T04:27:48;101195.97;;;16.04;100.00
61528;BME280;47395;42.032;-8.634;2023-04-24T04:29:50;101196.16;;;16.01;100.00
61528;BME280;47395;42.032;-8.634;2023-04-24T04:31:51;101193.63;;;16.00;100.00
61528;BME280;47395;42.032;-8.634;2023-04-24T04:33:53;101191.91;;;15.99;100.00
61528;BME280;47395;42.032;-8.634;2023-04-24T04:35:54;101190.84;;;16.01;100.00
61528;BME280;47395;42.032;-8.634;2023-04-24T04:37:58;101190.09;;;15.99;100.00
61528;BME280;47395;42.032;-8.634;2023-04-24T04:40:25;101188.09;;;16.03;100.00
61528;BME280;47395;42.032;-8.634;2023-04-24T04:42:33;101188.09;;;16.03;100.00
61528;BME280;47395;42.032;-8.634;2023-04-24T04:44:41;101198.81;;;16.01;100.00
61528;BME280;47395;42.032;-8.634;2023-04-24T04:46:45;101195.88;;;16.06;100.00
61528;BME280;47395;42.032;-8.634;2023-04-24T04:49:00;101200.69;;;16.14;100.00
61528;BME280;47395;42.032;-8.634;2023-04-24T04:51:01;101196.41;;;16.11;100.00
61528;BME280;47395;42.032;-8.634;2023-04-24T04:53:03;101197.06;;;16.15;100.00
61528;BME280;47395;42.032;-8.634;2023-04-24T04:55:08;101196.78;;;16.20;100.00
61528;BME280;47395;42.032;-8.634;2023-04-24T04:57:31;101195.91;;;16.19;100.00
61528;BME280;47395;42.032;-8.634;2023-04-24T04:59:32;101199.25;;;16.23;100.00
61528;BME280;47395;42.032;-8.634;2023-04-24T05:01:39;101199.25;;;16.23;100.00
61528;BME280;47395;42.032;-8.634;2023-04-24T05:03:42;101206.34;;;16.22;100.00
61528;BME280;47395;42.032;-8.634;2023-04-24T05:05:46;101207.50;;;16.18;100.00
61528;BME280;47395;42.032;-8.634;2023-04-24T05:07:49;101201.53;;;16.14;100.00
61528;BME280;47395;42.032;-8.634;2023-04-24T05:09:50;101193.75;;;16.11;100.00
61528;BME280;47395;42.032;-8.634;2023-04-24T05:11:53;101188.53;;;16.10;100.00
61528;BME280;47395;42.032;-8.634;2023-04-24T05:13:56;101193.13;;;16.08;100.00
61528;BME280;47395;42.032;-8.634;2023-04-24T05:16:06;101196.38;;;15.98;100.00
61528;BME280;47395;42.032;-8.634;2023-04-24T05:18:08;101198.94;;;16.00;100.00
61528;BME280;47395;42.032;-8.634;2023-04-24T05:20:09;101196.63;;;15.93;100.00
61528;BME280;47395;42.032;-8.634;2023-04-24T05:22:10;101203.56;;;15.96;100.00
61528;BME280;47395;42.032;-8.634;2023-04-24T05:24:21;101197.69;;;15.91;100.00
61528;BME280;47395;42.032;-8.634;2023-04-24T05:26:53;101195.97;;;15.90;100.00
61528;BME280;47395;42.032;-8.634;2023-04-24T05:28:59;101198.81;;;15.87;100.00
61528;BME280;47395;42.032;-8.634;2023-04-24T05:31:00;101191.72;;;15.87;100.00
61528;BME280;47395;42.032;-8.634;2023-04-24T05:33:01;101187.34;;;15.86;100.00
61528;BME280;47395;42.032;-8.634;2023-04-24T05:35:04;101194.38;;;15.87;100.00
61528;BME280;47395;42.032;-8.634;2023-04-24T05:37:06;101186.31;;;15.89;100.00
61528;BME280;47395;42.032;-8.634;2023-04-24T05:39:09;101190.94;;;15.85;100.00
61528;BME280;47395;42.032;-8.634;2023-04-24T05:41:10;101203.09;;;15.89;100.00
61528;BME280;47395;42.032;-8.634;2023-04-24T05:43:11;101206.78;;;15.87;100.00
61528;BME280;47395;42.032;-8.634;2023-04-24T05:45:12;101218.19;;;15.89;100.00
61528;BME280;47395;42.032;-8.634;2023-04-24T05:47:17;101223.59;;;15.87;100.00
61528;BME280;47395;42.032;-8.634;2023-04-24T05:49:18;101223.19;;;15.93;100.00
61528;BME280;47395;42.032;-8.634;2023-04-24T05:51:19;101223.28;;;15.92;100.00
61528;BME280;47395;42.032;-8.634;2023-04-24T05:53:21;101230.69;;;16.01;99.96
61528;BME280;47395;42.032;-8.634;2023-04-24T05:55:22;101232.06;;;15.94;100.00
61528;BME280;47395;42.032;-8.634;2023-04-24T05:57:23;101236.88;;;16.02;99.62
61528;BME280;47395;42.032;-8.634;2023-04-24T05:59:31;101245.16;;;15.97;99.10
61528;BME280;47395;42.032;-8.634;2023-04-24T06:01:32;101254.75;;;16.00;98.90
61528;BME280;47395;42.032;-8.634;2023-04-24T06:03:42;101254.84;;;15.98;98.80
61528;BME280;47395;42.032;-8.634;2023-04-24T06:05:43;101257.59;;;15.97;98.92
61528;BME280;47395;42.032;-8.634;2023-04-24T06:07:44;101256.53;;;15.85;99.25
61528;BME280;47395;42.032;-8.634;2023-04-24T06:09:46;101260.41;;;15.93;99.49
61528;BME280;47395;42.032;-8.634;2023-04-24T06:11:49;101254.94;;;15.97;99.22
61528;BME280;47395;42.032;-8.634;2023-04-24T06:13:54;101260.41;;;15.93;99.54
61528;BME280;47395;42.032;-8.634;2023-04-24T06:16:13;101264.88;;;15.93;99.87
61528;BME280;47395;42.032;-8.634;2023-04-24T06:18:19;101263.06;;;15.93;99.50
61528;BME280;47395;42.032;-8.634;2023-04-24T06:20:22;101270.66;;;15.85;99.99
61528;BME280;47395;42.032;-8.634;2023-04-24T06:22:23;101265.16;;;15.88;99.95
61528;BME280;47395;42.032;-8.634;2023-04-24T06:24:27;101270.00;;;15.96;99.88
61528;BME280;47395;42.032;-8.634;2023-04-24T06:26:28;101281.19;;;16.01;99.75
61528;BME280;47395;42.032;-8.634;2023-04-24T06:28:29;101278.25;;;16.06;99.19
61528;BME280;47395;42.032;-8.634;2023-04-24T06:30:30;101278.91;;;16.10;99.29
61528;BME280;47395;42.032;-8.634;2023-04-24T06:32:31;101275.31;;;16.11;99.09
61528;BME280;47395;42.032;-8.634;2023-04-24T06:34:33;101273.41;;;16.13;99.07
61528;BME280;47395;42.032;-8.634;2023-04-24T06:36:36;101282.03;;;16.16;98.96
61528;BME280;47395;42.032;-8.634;2023-04-24T06:38:36;101280.06;;;16.20;98.95
61528;BME280;47395;42.032;-8.634;2023-04-24T06:40:38;101291.53;;;16.21;98.57
61528;BME280;47395;42.032;-8.634;2023-04-24T06:42:38;101287.44;;;16.15;98.28
61528;BME280;47395;42.032;-8.634;2023-04-24T06:44:42;101280.97;;;16.19;98.14
61528;BME280;47395;42.032;-8.634;2023-04-24T06:46:43;101279.09;;;16.21;98.46
61528;BME280;47395;42.032;-8.634;2023-04-24T06:48:44;101280.06;;;16.20;98.13
61528;BME280;47395;42.032;-8.634;2023-04-24T06:50:45;101278.31;;;16.19;98.41
61528;BME280;47395;42.032;-8.634;2023-04-24T06:52:47;101279.00;;;16.23;98.00
61528;BME280;47395;42.032;-8.634;2023-04-24T06:54:48;101275.47;;;16.22;98.11
61528;BME280;47395;42.032;-8.634;2023-04-24T06:56:49;101281.91;;;16.33;98.08
61528;BME280;47395;42.032;-8.634;2023-04-24T06:58:51;101285.72;;;16.28;97.86
61528;BME280;47395;42.032;-8.634;2023-04-24T07:00:53;101279.31;;;16.46;97.23
61528;BME280;47395;42.032;-8.634;2023-04-24T07:02:54;101279.34;;;16.58;97.00
61528;BME280;47395;42.032;-8.634;2023-04-24T07:04:55;101276.75;;;16.72;96.27
61528;BME280;47395;42.032;-8.634;2023-04-24T07:06:57;101269.72;;;16.70;95.49
61528;BME280;47395;42.032;-8.634;2023-04-24T07:08:58;101267.38;;;16.79;94.94
61528;BME280;47395;42.032;-8.634;2023-04-24T07:11:00;101268.44;;;16.76;94.94
61528;BME280;47395;42.032;-8.634;2023-04-24T07:13:01;101271.56;;;16.83;94.64
61528;BME280;47395;42.032;-8.634;2023-04-24T07:15:02;101269.00;;;16.81;93.70
61528;BME280;47395;42.032;-8.634;2023-04-24T07:17:04;101273.47;;;16.81;93.78
61528;BME280;47395;42.032;-8.634;2023-04-24T07:19:05;101281.03;;;16.87;93.87
61528;BME280;47395;42.032;-8.634;2023-04-24T07:21:06;101277.03;;;16.94;93.62
61528;BME280;47395;42.032;-8.634;2023-04-24T07:23:07;101287.22;;;16.88;92.96
61528;BME280;47395;42.032;-8.634;2023-04-24T07:25:09;101288.22;;;17.00;93.57
61528;BME280;47395;42.032;-8.634;2023-04-24T07:27:09;101280.84;;;17.03;92.91
61528;BME280;47395;42.032;-8.634;2023-04-24T07:29:10;101281.38;;;16.95;93.09
61528;BME280;47395;42.032;-8.634;2023-04-24T07:31:11;101289.13;;;16.86;93.49
61528;BME280;47395;42.032;-8.634;2023-04-24T07:33:12;101287.63;;;16.81;93.46
61528;BME280;47395;42.032;-8.634;2023-04-24T07:35:13;101300.16;;;16.66;nan
61528;BME280;47395;42.032;-8.634;2023-04-24T07:37:14;101295.75;;;16.65;94.21
61528;BME280;47395;42.032;-8.634;2023-04-24T07:39:15;101295.75;;;16.65;94.90
61528;BME280;47395;42.032;-8.634;2023-04-24T07:41:16;101300.69;;;16.72;95.06
61528;BME280;47395;42.032;-8.634;2023-04-24T07:43:17;101297.97;;;16.58;95.46
61528;BME280;47395;42.032;-8.634;2023-04-24T07:45:18;101303.97;;;16.62;95.34
61528;BME280;47395;42.032;-8.634;2023-04-24T07:47:19;101302.69;;;16.68;95.14
61528;BME280;47395;42.032;-8.634;2023-04-24T07:49:19;101303.97;;;16.62;95.21
61528;BME280;47395;42.032;-8.634;2023-04-24T07:51:20;101306.63;;;16.62;95.37
61528;BME280;47395;42.032;-8.634;2023-04-24T07:53:21;101300.25;;;16.65;95.55
61528;BME280;47395;42.032;-8.634;2023-04-24T07:55:22;101303.56;;;16.68;95.96
61528;BME280;47395;42.032;-8.634;2023-04-24T07:57:24;101302.41;;;16.73;95.45
61528;BME280;47395;42.032;-8.634;2023-04-24T07:59:26;101300.09;;;16.81;95.27
61528;BME280;47395;42.032;-8.634;2023-04-24T08:01:27;101303.19;;;16.88;95.47
61528;BME280;47395;42.032;-8.634;2023-04-24T08:03:27;101297.16;;;16.99;94.42
61528;BME280;47395;42.032;-8.634;2023-04-24T08:05:28;101297.16;;;16.99;94.31
61528;BME280;47395;42.032;-8.634;2023-04-24T08:07:29;101302.03;;;16.92;94.67
61528;BME280;47395;42.032;-8.634;2023-04-24T08:09:30;101305.75;;;16.89;94.30
61528;BME280;47395;42.032;-8.634;2023-04-24T08:11:31;101303.94;;;16.90;93.96
61528;BME280;47395;42.032;-8.634;2023-04-24T08:13:32;101300.00;;;16.95;93.17
61528;BME280;47395;42.032;-8.634;2023-04-24T08:15:33;101305.84;;;16.88;94.12
61528;BME280;47395;42.032;-8.634;2023-04-24T08:17:34;101306.41;;;16.93;93.18
61528;BME280;47395;42.032;-8.634;2023-04-24T08:19:36;101309.66;;;16.83;93.22
61528;BME280;47395;42.032;-8.634;2023-04-24T08:21:37;101308.31;;;16.91;93.34
61528;BME280;47395;42.032;-8.634;2023-04-24T08:23:38;101310.53;;;16.84;92.79
61528;BME280;47395;42.032;-8.634;2023-04-24T08:25:38;101306.84;;;17.00;92.66
61528;BME280;47395;42.032;-8.634;2023-04-24T08:27:39;101307.94;;;17.10;92.33
61528;BME280;47395;42.032;-8.634;2023-04-24T08:29:40;101308.72;;;17.25;91.18
61528;BME280;47395;42.032;-8.634;2023-04-24T08:31:41;101307.25;;;17.34;91.70
61528;BME280;47395;42.032;-8.634;2023-04-24T08:33:42;101311.47;;;17.23;89.95
61528;BME280;47395;42.032;-8.634;2023-04-24T08:35:45;101306.38;;;17.20;90.63
61528;BME280;47395;42.032;-8.634;2023-04-24T08:37:46;101316.78;;;17.11;90.66
61528;BME280;47395;42.032;-8.634;2023-04-24T08:39:47;101317.00;;;17.07;89.96
61528;BME280;47395;42.032;-8.634;2023-04-24T08:41:48;101314.56;;;17.04;90.89
61528;BME280;47395;42.032;-8.634;2023-04-24T08:43:51;101317.00;;;17.07;90.17
61528;BME280;47395;42.032;-8.634;2023-04-24T08:45:52;101315.94;;;17.10;89.82
61528;BME280;47395;42.032;-8.634;2023-04-24T08:47:53;101325.13;;;17.19;89.05
61528;BME280;47395;42.032;-8.634;2023-04-24T08:49:57;101320.88;;;17.29;88.70
61528;BME280;47395;42.032;-8.634;2023-04-24T08:52:00;101330.47;;;17.32;87.72
61528;BME280;47395;42.032;-8.634;2023-04-24T08:54:02;101329.63;;;17.31;87.80
61528;BME280;47395;42.032;-8.634;2023-04-24T08:56:04;101329.63;;;17.31;87.98
61528;BME280;47395;42.032;-8.634;2023-04-24T08:58:05;101322.81;;;17.27;86.93
61528;BME280;47395;42.032;-8.634;2023-04-24T09:00:07;101322.59;;;17.56;85.68
61528;BME280;47395;42.032;-8.634;2023-04-24T09:02:10;101320.91;;;17.68;85.76
61528;BME280;47395;42.032;-8.634;2023-04-24T09:04:12;101314.50;;;17.97;83.84
61528;BME280;47395;42.032;-8.634;2023-04-24T09:06:17;101314.28;;;18.13;82.49
61528;BME280;47395;42.032;-8.634;2023-04-24T09:08:20;101321.66;;;18.47;80.73
61528;BME280;47395;42.032;-8.634;2023-04-24T09:10:25;101322.94;;;18.90;80.21
61528;BME280;47395;42.032;-8.634;2023-04-24T09:12:26;101329.28;;;18.64;79.65
61528;BME280;47395;42.032;-8.634;2023-04-24T09:14:27;101318.41;;;18.55;79.57
61528;BME280;47395;42.032;-8.634;2023-04-24T09:16:28;101322.72;;;18.44;81.05
61528;BME280;47395;42.032;-8.634;2023-04-24T09:18:30;101327.41;;;18.40;81.25
61528;BME280;47395;42.032;-8.634;2023-04-24T09:20:31;101327.19;;;18.44;80.60
61528;BME280;47395;42.032;-8.634;2023-04-24T09:22:32;101330.75;;;18.31;80.33
61528;BME280;47395;42.032;-8.634;2023-04-24T09:24:34;101332.94;;;18.13;80.76
61528;BME280;47395;42.032;-8.634;2023-04-24T09:26:36;101343.28;;;18.05;82.00
61528;BME280;47395;42.032;-8.634;2023-04-24T09:28:39;101349.25;;;17.95;82.68
61528;BME280;47395;42.032;-8.634;2023-04-24T09:30:40;101349.03;;;17.98;82.78
61528;BME280;47395;42.032;-8.634;2023-04-24T09:32:41;101344.34;;;17.89;83.30
61528;BME280;47395;42.032;-8.634;2023-04-24T09:34:42;101348.28;;;17.83;83.76
61528;BME280;47395;42.032;-8.634;2023-04-24T09:36:44;101350.53;;;17.64;83.74
61528;BME280;47395;42.032;-8.634;2023-04-24T09:38:45;101345.00;;;17.67;84.59
61528;BME280;47395;42.032;-8.634;2023-04-24T09:40:46;101345.09;;;17.78;83.49
61528;BME280;47395;42.032;-8.634;2023-04-24T09:42:55;101345.63;;;17.96;83.09
61528;BME280;47395;42.032;-8.634;2023-04-24T09:44:57;101339.63;;;18.19;82.11
61528;BME280;47395;42.032;-8.634;2023-04-24T09:47:00;101341.25;;;18.21;82.39
61528;BME280;47395;42.032;-8.634;2023-04-24T09:49:13;101339.88;;;18.53;81.01
61528;BME280;47395;42.032;-8.634;2023-04-24T09:51:14;101334.66;;;18.76;80.48
61528;BME280;47395;42.032;-8.634;2023-04-24T09:53:16;101340.94;;;18.99;79.21
61528;BME280;47395;42.032;-8.634;2023-04-24T09:55:24;101352.09;;;19.17;77.89
61528;BME280;47395;42.032;-8.634;2023-04-24T09:57:27;101350.16;;;18.95;77.94
61528;BME280;47395;42.032;-8.634;2023-04-24T09:59:28;101348.50;;;19.05;78.15
61528;BME280;47395;42.032;-8.634;2023-04-24T10:01:31;101352.31;;;19.14;77.98
61528;BME280;47395;42.032;-8.634;2023-04-24T10:03:33;101351.69;;;18.86;78.42
61528;BME280;47395;42.032;-8.634;2023-04-24T10:05:35;101347.88;;;19.02;78.29
61528;BME280;47395;42.032;-8.634;2023-04-24T10:07:37;101349.81;;;19.24;76.99
61528;BME280;47395;42.032;-8.634;2023-04-24T10:09:38;101351.84;;;19.21;76.79
61528;BME280;47395;42.032;-8.634;2023-04-24T10:11:44;101352.94;;;18.94;77.94
61528;BME280;47395;42.032;-8.634;2023-04-24T10:13:48;101347.84;;;18.90;77.78
61528;BME280;47395;42.032;-8.634;2023-04-24T10:15:48;101353.00;;;18.81;76.98
61528;BME280;47395;42.032;-8.634;2023-04-24T10:17:51;101357.06;;;18.98;77.21
61528;BME280;47395;42.032;-8.634;2023-04-24T10:19:57;101351.06;;;19.07;76.76
61528;BME280;47395;42.032;-8.634;2023-04-24T10:21:59;101358.25;;;19.07;76.51
61528;BME280;47395;42.032;-8.634;2023-04-24T10:24:01;101356.25;;;19.22;76.32
61528;BME280;47395;42.032;-8.634;2023-04-24T10:26:05;101364.16;;;19.35;75.22
61528;BME280;47395;42.032;-8.634;2023-04-24T10:28:07;101365.41;;;19.53;74.57
61528;BME280;47395;42.032;-8.634;2023-04-24T10:30:08;101362.94;;;19.98;71.75